sensor_id;sensor_type;location;lat;lon;timestamp;P1;durP1;ratioP1;P2;durP2;ratioP2
77522;SDS011;66637;-29.628;-49.938;2023-09-19T00:01:07;106.88;;;13.05;;
77522;SDS011;66637;-29.628;-49.938;2023-09-19T00:03:39;58.38;;;8.82;;
77522;SDS011;66637;-29.628;-49.938;2023-09-19T00:06:12;56.83;;;8.63;;
77522;SDS011;66637;-29.628;-49.938;2023-09-19T00:08:45;42.35;;;6.65;;
77522;SDS011;66637;-29.628;-49.938;2023-09-19T00:11:19;36.38;;;6.75;;
77522;SDS011;66637;-29.628;-49.938;2023-09-19T00:13:50;41.00;;;6.55;;
77522;SDS011;66637;-29.628;-49.938;2023-09-19T00:16:22;38.63;;;6.70;;
77522;SDS011;66637;-29.628;-49.938;2023-09-19T00:18:53;92.57;;;13.48;;
77522;SDS011;66637;-29.628;-49.938;2023-09-19T00:21:24;147.05;;;20.67;;
77522;SDS011;66637;-29.628;-49.938;2023-09-19T00:23:56;241.15;;;33.15;;
77522;SDS011;66637;-29.628;-49.938;2023-09-19T00:26:27;124.93;;;18.13;;
77522;SDS011;66637;-29.628;-49.938;2023-09-19T00:29:01;27.40;;;6.20;;
77522;SDS011;66637;-29.628;-49.938;2023-09-19T00:31:38;21.90;;;5.75;;
77522;SDS011;66637;-29.628;-49.938;2023-09-19T00:34:09;26.63;;;5.38;;
77522;SDS011;66637;-29.628;-49.938;2023-09-19T00:36:42;24.83;;;6.03;;
77522;SDS011;66637;-29.628;-49.938;2023-09-19T00:39:13;25.58;;;6.05;;
77522;SDS011;66637;-29.628;-49.938;2023-09-19T00:41:45;25.23;;;5.70;;
77522;SDS011;66637;-29.628;-49.938;2023-09-19T00:44:18;21.67;;;5.75;;
77522;SDS011;66637;-29.628;-49.938;2023-09-19T00:46:50;24.77;;;6.00;;
77522;SDS011;66637;-29.628;-49.938;2023-09-19T00:49:23;21.25;;;5.25;;
77522;SDS011;66637;-29.628;-49.938;2023-09-19T00:51:55;22.80;;;5.90;;
77522;SDS011;66637;-29.628;-49.938;2023-09-19T00:54:26;18.27;;;5.40;;
77522;SDS011;66637;-29.628;-49.938;2023-09-19T00:57:00;16.48;;;5.63;;
77522;SDS011;66637;-29.628;-49.938;2023-09-19T00:59:30;19.25;;;5.35;;
77522;SDS011;66637;-29.628;-49.938;2023-09-19T01:02:02;22.33;;;5.63;;
77522;SDS011;66637;-29.628;-49.938;2023-09-19T01:04:33;24.70;;;5.78;;
77522;SDS011;66637;-29.628;-49.938;2023-09-19T01:07:05;18.73;;;5.80;;
77522;SDS011;66637;-29.628;-49.938;2023-09-19T01:09:39;18.80;;;5.97;;
77522;SDS011;66637;-29.628;-49.938;2023-09-19T01:12:12;19.15;;;5.50;;
77522;SDS011;66637;-29.628;-49.938;2023-09-19T01:14:59;14.50;;;4.95;;
77522;SDS011;66637;-29.628;-49.938;2023-09-19T01:18:27;19.27;;;5.57;;
77522;SDS011;66637;-29.628;-49.938;2023-09-19T01:23:49;17.13;;;5.20;;
77522;SDS011;66637;-29.628;-49.938;2023-09-19T01:32:01;19.48;;;5.35;;
77522;SDS011;66637;-29.628;-49.938;2023-09-19T01:37:23;156.88;;;19.42;;
77522;SDS011;66637;-29.628;-49.938;2023-09-19T01:40:00;107.13;;;14.68;;
77522;SDS011;66637;-29.628;-49.938;2023-09-19T01:42:41;62.80;;;10.27;;
77522;SDS011;66637;-29.628;-49.938;2023-09-19T01:48:19;15.52;;;5.18;;
77522;SDS011;66637;-29.628;-49.938;2023-09-19T01:51:03;13.98;;;4.75;;
77522;SDS011;66637;-29.628;-49.938;2023-09-19T01:53:41;15.15;;;4.25;;
77522;SDS011;66637;-29.628;-49.938;2023-09-19T01:56:16;11.98;;;4.50;;
77522;SDS011;66637;-29.628;-49.938;2023-09-19T01:58:56;10.60;;;4.05;;
77522;SDS011;66637;-29.628;-49.938;2023-09-19T02:01:36;8.80;;;3.63;;
77522;SDS011;66637;-29.628;-49.938;2023-09-19T02:04:08;10.68;;;3.92;;
77522;SDS011;66637;-29.628;-49.938;2023-09-19T02:09:17;11.07;;;3.88;;
77522;SDS011;66637;-29.628;-49.938;2023-09-19T02:11:52;40.65;;;6.88;;
77522;SDS011;66637;-29.628;-49.938;2023-09-19T02:14:28;12.40;;;4.10;;
77522;SDS011;66637;-29.628;-49.938;2023-09-19T02:16:59;13.25;;;4.25;;
77522;SDS011;66637;-29.628;-49.938;2023-09-19T02:19:30;16.35;;;4.32;;
77522;SDS011;66637;-29.628;-49.938;2023-09-19T02:22:02;10.88;;;4.10;;
77522;SDS011;66637;-29.628;-49.938;2023-09-19T02:24:37;10.52;;;3.95;;
77522;SDS011;66637;-29.628;-49.938;2023-09-19T02:27:08;13.25;;;4.00;;
77522;SDS011;66637;-29.628;-49.938;2023-09-19T02:29:43;14.70;;;3.88;;
77522;SDS011;66637;-29.628;-49.938;2023-09-19T02:32:13;11.48;;;3.80;;
77522;SDS011;66637;-29.628;-49.938;2023-09-19T02:34:44;13.00;;;3.97;;
77522;SDS011;66637;-29.628;-49.938;2023-09-19T02:37:15;12.13;;;4.20;;
77522;SDS011;66637;-29.628;-49.938;2023-09-19T02:39:45;14.27;;;3.90;;
77522;SDS011;66637;-29.628;-49.938;2023-09-19T02:42:16;10.98;;;4.00;;
77522;SDS011;66637;-29.628;-49.938;2023-09-19T02:44:50;8.13;;;3.53;;
77522;SDS011;66637;-29.628;-49.938;2023-09-19T02:47:21;11.35;;;3.90;;
77522;SDS011;66637;-29.628;-49.938;2023-09-19T02:49:53;15.30;;;4.20;;
77522;SDS011;66637;-29.628;-49.938;2023-09-19T02:52:27;11.32;;;3.72;;
77522;SDS011;66637;-29.628;-49.938;2023-09-19T02:54:58;11.13;;;3.85;;
77522;SDS011;66637;-29.628;-49.938;2023-09-19T02:57:33;8.23;;;3.55;;
77522;SDS011;66637;-29.628;-49.938;2023-09-19T03:00:05;11.70;;;4.20;;
77522;SDS011;66637;-29.628;-49.938;2023-09-19T03:02:38;11.25;;;4.00;;
77522;SDS011;66637;-29.628;-49.938;2023-09-19T03:05:13;11.63;;;3.85;;
77522;SDS011;66637;-29.628;-49.938;2023-09-19T03:07:49;11.82;;;4.05;;
77522;SDS011;66637;-29.628;-49.938;2023-09-19T03:10:21;12.60;;;3.83;;
77522;SDS011;66637;-29.628;-49.938;2023-09-19T03:12:56;14.70;;;4.50;;
77522;SDS011;66637;-29.628;-49.938;2023-09-19T03:15:30;13.57;;;4.93;;
77522;SDS011;66637;-29.628;-49.938;2023-09-19T03:18:01;12.88;;;4.60;;
77522;SDS011;66637;-29.628;-49.938;2023-09-19T03:20:32;15.50;;;4.78;;
77522;SDS011;66637;-29.628;-49.938;2023-09-19T03:23:05;14.95;;;5.25;;
77522;SDS011;66637;-29.628;-49.938;2023-09-19T03:25:37;9.52;;;4.85;;
77522;SDS011;66637;-29.628;-49.938;2023-09-19T03:28:10;11.85;;;4.93;;
77522;SDS011;66637;-29.628;-49.938;2023-09-19T03:30:44;14.88;;;5.13;;
77522;SDS011;66637;-29.628;-49.938;2023-09-19T03:33:15;11.63;;;4.72;;
77522;SDS011;66637;-29.628;-49.938;2023-09-19T03:35:51;11.30;;;4.70;;
77522;SDS011;66637;-29.628;-49.938;2023-09-19T03:38:26;10.73;;;4.68;;
77522;SDS011;66637;-29.628;-49.938;2023-09-19T03:41:03;12.32;;;4.32;;
77522;SDS011;66637;-29.628;-49.938;2023-09-19T03:43:36;14.57;;;4.22;;
77522;SDS011;66637;-29.628;-49.938;2023-09-19T03:46:07;12.95;;;4.68;;
77522;SDS011;66637;-29.628;-49.938;2023-09-19T03:48:40;9.65;;;4.05;;
77522;SDS011;66637;-29.628;-49.938;2023-09-19T03:51:12;10.38;;;3.63;;
77522;SDS011;66637;-29.628;-49.938;2023-09-19T03:53:44;9.35;;;4.00;;
77522;SDS011;66637;-29.628;-49.938;2023-09-19T03:56:15;10.50;;;3.30;;
77522;SDS011;66637;-29.628;-49.938;2023-09-19T03:58:46;8.32;;;3.55;;
77522;SDS011;66637;-29.628;-49.938;2023-09-19T04:01:16;9.88;;;3.60;;
77522;SDS011;66637;-29.628;-49.938;2023-09-19T04:03:49;11.10;;;3.20;;
77522;SDS011;66637;-29.628;-49.938;2023-09-19T04:06:22;6.05;;;3.03;;
77522;SDS011;66637;-29.628;-49.938;2023-09-19T04:08:52;7.90;;;3.20;;
77522;SDS011;66637;-29.628;-49.938;2023-09-19T04:11:23;8.07;;;3.20;;
77522;SDS011;66637;-29.628;-49.938;2023-09-19T04:13:56;9.20;;;3.15;;
77522;SDS011;66637;-29.628;-49.938;2023-09-19T04:16:27;8.75;;;3.70;;
77522;SDS011;66637;-29.628;-49.938;2023-09-19T04:18:58;7.82;;;3.20;;
77522;SDS011;66637;-29.628;-49.938;2023-09-19T04:21:29;8.25;;;3.40;;
77522;SDS011;66637;-29.628;-49.938;2023-09-19T04:24:00;8.55;;;3.50;;
77522;SDS011;66637;-29.628;-49.938;2023-09-19T04:26:31;6.88;;;2.88;;
77522;SDS011;66637;-29.628;-49.938;2023-09-19T04:29:02;9.65;;;3.72;;
77522;SDS011;66637;-29.628;-49.938;2023-09-19T04:31:34;8.70;;;3.38;;
77522;SDS011;66637;-29.628;-49.938;2023-09-19T04:34:10;9.60;;;3.58;;
77522;SDS011;66637;-29.628;-49.938;2023-09-19T04:36:46;12.25;;;3.67;;
77522;SDS011;66637;-29.628;-49.938;2023-09-19T04:39:18;9.50;;;3.55;;
77522;SDS011;66637;-29.628;-49.938;2023-09-19T04:41:49;8.18;;;3.10;;
77522;SDS011;66637;-29.628;-49.938;2023-09-19T04:44:20;7.63;;;3.00;;
77522;SDS011;66637;-29.628;-49.938;2023-09-19T04:46:51;10.38;;;3.28;;
77522;SDS011;66637;-29.628;-49.938;2023-09-19T04:49:23;6.65;;;2.90;;
77522;SDS011;66637;-29.628;-49.938;2023-09-19T04:51:54;4.80;;;2.70;;
77522;SDS011;66637;-29.628;-49.938;2023-09-19T04:54:25;7.13;;;3.08;;
77522;SDS011;66637;-29.628;-49.938;2023-09-19T04:56:57;7.55;;;2.80;;
77522;SDS011;66637;-29.628;-49.938;2023-09-19T04:59:29;6.38;;;3.10;;
77522;SDS011;66637;-29.628;-49.938;2023-09-19T05:02:00;8.25;;;3.17;;
77522;SDS011;66637;-29.628;-49.938;2023-09-19T05:04:31;5.60;;;2.60;;
77522;SDS011;66637;-29.628;-49.938;2023-09-19T05:07:01;7.43;;;2.63;;
77522;SDS011;66637;-29.628;-49.938;2023-09-19T05:09:32;10.13;;;2.90;;
77522;SDS011;66637;-29.628;-49.938;2023-09-19T05:12:04;6.43;;;2.35;;
77522;SDS011;66637;-29.628;-49.938;2023-09-19T05:14:37;7.18;;;3.08;;
77522;SDS011;66637;-29.628;-49.938;2023-09-19T05:17:09;4.65;;;2.47;;
77522;SDS011;66637;-29.628;-49.938;2023-09-19T05:19:40;6.35;;;2.72;;
77522;SDS011;66637;-29.628;-49.938;2023-09-19T05:22:10;4.72;;;2.53;;
77522;SDS011;66637;-29.628;-49.938;2023-09-19T05:24:42;7.30;;;2.75;;
77522;SDS011;66637;-29.628;-49.938;2023-09-19T05:27:14;6.78;;;2.50;;
77522;SDS011;66637;-29.628;-49.938;2023-09-19T05:29:46;5.70;;;2.75;;
77522;SDS011;66637;-29.628;-49.938;2023-09-19T05:32:18;5.30;;;2.45;;
77522;SDS011;66637;-29.628;-49.938;2023-09-19T05:34:48;4.22;;;2.40;;
77522;SDS011;66637;-29.628;-49.938;2023-09-19T05:37:22;7.40;;;2.75;;
77522;SDS011;66637;-29.628;-49.938;2023-09-19T05:39:53;7.75;;;2.85;;
77522;SDS011;66637;-29.628;-49.938;2023-09-19T05:42:24;5.82;;;3.08;;
77522;SDS011;66637;-29.628;-49.938;2023-09-19T05:44:55;6.85;;;2.58;;
77522;SDS011;66637;-29.628;-49.938;2023-09-19T05:47:26;7.47;;;2.97;;
77522;SDS011;66637;-29.628;-49.938;2023-09-19T05:49:58;6.53;;;2.75;;
77522;SDS011;66637;-29.628;-49.938;2023-09-19T05:52:29;9.05;;;2.88;;
77522;SDS011;66637;-29.628;-49.938;2023-09-19T05:55:00;7.65;;;2.92;;
77522;SDS011;66637;-29.628;-49.938;2023-09-19T05:57:31;7.10;;;2.88;;
77522;SDS011;66637;-29.628;-49.938;2023-09-19T06:00:03;6.90;;;3.20;;
77522;SDS011;66637;-29.628;-49.938;2023-09-19T06:02:40;7.60;;;2.80;;
77522;SDS011;66637;-29.628;-49.938;2023-09-19T06:05:11;6.72;;;2.92;;
77522;SDS011;66637;-29.628;-49.938;2023-09-19T06:07:41;8.05;;;3.42;;
77522;SDS011;66637;-29.628;-49.938;2023-09-19T06:10:13;9.50;;;3.10;;
77522;SDS011;66637;-29.628;-49.938;2023-09-19T06:12:45;8.15;;;3.42;;
77522;SDS011;66637;-29.628;-49.938;2023-09-19T06:15:16;9.43;;;3.15;;
77522;SDS011;66637;-29.628;-49.938;2023-09-19T06:17:53;6.38;;;2.92;;
77522;SDS011;66637;-29.628;-49.938;2023-09-19T06:20:25;8.32;;;2.95;;
77522;SDS011;66637;-29.628;-49.938;2023-09-19T06:22:56;5.95;;;2.80;;
77522;SDS011;66637;-29.628;-49.938;2023-09-19T06:25:28;5.75;;;2.90;;
77522;SDS011;66637;-29.628;-49.938;2023-09-19T06:28:01;5.97;;;2.90;;
77522;SDS011;66637;-29.628;-49.938;2023-09-19T06:30:35;5.78;;;2.83;;
77522;SDS011;66637;-29.628;-49.938;2023-09-19T06:33:09;7.78;;;3.08;;
77522;SDS011;66637;-29.628;-49.938;2023-09-19T06:35:46;5.47;;;2.55;;
77522;SDS011;66637;-29.628;-49.938;2023-09-19T06:38:17;5.88;;;2.95;;
77522;SDS011;66637;-29.628;-49.938;2023-09-19T06:40:48;6.53;;;2.63;;
77522;SDS011;66637;-29.628;-49.938;2023-09-19T06:43:20;6.00;;;3.13;;
77522;SDS011;66637;-29.628;-49.938;2023-09-19T06:45:51;5.50;;;2.75;;
77522;SDS011;66637;-29.628;-49.938;2023-09-19T06:48:25;5.93;;;2.55;;
77522;SDS011;66637;-29.628;-49.938;2023-09-19T06:50:59;6.45;;;2.60;;
77522;SDS011;66637;-29.628;-49.938;2023-09-19T06:53:34;5.32;;;2.72;;
77522;SDS011;66637;-29.628;-49.938;2023-09-19T06:56:06;9.18;;;3.10;;
77522;SDS011;66637;-29.628;-49.938;2023-09-19T06:58:37;7.53;;;2.72;;
77522;SDS011;66637;-29.628;-49.938;2023-09-19T07:01:08;6.05;;;2.40;;
77522;SDS011;66637;-29.628;-49.938;2023-09-19T07:03:39;6.13;;;2.65;;
77522;SDS011;66637;-29.628;-49.938;2023-09-19T07:06:10;7.57;;;2.70;;
77522;SDS011;66637;-29.628;-49.938;2023-09-19T07:08:42;6.30;;;2.65;;
77522;SDS011;66637;-29.628;-49.938;2023-09-19T07:11:14;4.30;;;2.55;;
77522;SDS011;66637;-29.628;-49.938;2023-09-19T07:13:46;5.75;;;2.53;;
77522;SDS011;66637;-29.628;-49.938;2023-09-19T07:16:17;6.45;;;2.70;;
77522;SDS011;66637;-29.628;-49.938;2023-09-19T07:21:29;6.47;;;2.58;;
77522;SDS011;66637;-29.628;-49.938;2023-09-19T07:24:03;6.07;;;2.72;;
77522;SDS011;66637;-29.628;-49.938;2023-09-19T07:26:34;5.05;;;2.50;;
77522;SDS011;66637;-29.628;-49.938;2023-09-19T07:29:05;6.93;;;2.65;;
77522;SDS011;66637;-29.628;-49.938;2023-09-19T07:31:36;4.20;;;2.15;;
77522;SDS011;66637;-29.628;-49.938;2023-09-19T07:34:06;7.90;;;3.15;;
77522;SDS011;66637;-29.628;-49.938;2023-09-19T07:36:39;6.07;;;2.60;;
77522;SDS011;66637;-29.628;-49.938;2023-09-19T07:39:11;5.28;;;2.45;;
77522;SDS011;66637;-29.628;-49.938;2023-09-19T07:41:50;4.30;;;2.60;;
77522;SDS011;66637;-29.628;-49.938;2023-09-19T07:44:21;112.35;;;14.77;;
77522;SDS011;66637;-29.628;-49.938;2023-09-19T07:46:52;176.85;;;22.85;;
77522;SDS011;66637;-29.628;-49.938;2023-09-19T07:49:24;132.35;;;17.73;;
77522;SDS011;66637;-29.628;-49.938;2023-09-19T07:51:56;91.32;;;12.70;;
77522;SDS011;66637;-29.628;-49.938;2023-09-19T07:54:28;75.10;;;11.43;;
77522;SDS011;66637;-29.628;-49.938;2023-09-19T07:57:05;69.72;;;12.07;;
77522;SDS011;66637;-29.628;-49.938;2023-09-19T07:59:36;96.70;;;12.70;;
77522;SDS011;66637;-29.628;-49.938;2023-09-19T08:02:08;96.65;;;12.00;;
77522;SDS011;66637;-29.628;-49.938;2023-09-19T08:04:45;94.47;;;14.43;;
77522;SDS011;66637;-29.628;-49.938;2023-09-19T08:07:17;76.40;;;12.98;;
77522;SDS011;66637;-29.628;-49.938;2023-09-19T08:09:48;94.85;;;14.18;;
77522;SDS011;66637;-29.628;-49.938;2023-09-19T08:12:19;85.88;;;13.23;;
77522;SDS011;66637;-29.628;-49.938;2023-09-19T08:14:54;99.38;;;14.13;;
77522;SDS011;66637;-29.628;-49.938;2023-09-19T08:17:24;72.95;;;12.30;;
77522;SDS011;66637;-29.628;-49.938;2023-09-19T08:19:55;75.43;;;12.07;;
77522;SDS011;66637;-29.628;-49.938;2023-09-19T08:22:26;123.10;;;17.77;;
77522;SDS011;66637;-29.628;-49.938;2023-09-19T08:24:59;133.82;;;19.73;;
77522;SDS011;66637;-29.628;-49.938;2023-09-19T08:27:34;175.07;;;24.52;;
77522;SDS011;66637;-29.628;-49.938;2023-09-19T08:30:05;39.92;;;6.78;;
77522;SDS011;66637;-29.628;-49.938;2023-09-19T08:32:36;41.60;;;7.90;;
77522;SDS011;66637;-29.628;-49.938;2023-09-19T08:35:06;75.22;;;11.20;;
77522;SDS011;66637;-29.628;-49.938;2023-09-19T08:37:38;72.80;;;11.70;;
77522;SDS011;66637;-29.628;-49.938;2023-09-19T08:40:10;80.90;;;13.27;;
77522;SDS011;66637;-29.628;-49.938;2023-09-19T08:42:50;191.05;;;25.27;;
77522;SDS011;66637;-29.628;-49.938;2023-09-19T08:45:24;178.52;;;23.27;;
77522;SDS011;66637;-29.628;-49.938;2023-09-19T08:50:47;134.68;;;19.77;;
77522;SDS011;66637;-29.628;-49.938;2023-09-19T08:53:43;170.85;;;23.75;;
77522;SDS011;66637;-29.628;-49.938;2023-09-19T08:56:18;150.75;;;21.23;;
77522;SDS011;66637;-29.628;-49.938;2023-09-19T08:58:55;125.00;;;16.83;;
77522;SDS011;66637;-29.628;-49.938;2023-09-19T09:01:29;137.05;;;19.45;;
77522;SDS011;66637;-29.628;-49.938;2023-09-19T09:04:02;117.53;;;17.65;;
77522;SDS011;66637;-29.628;-49.938;2023-09-19T09:06:33;140.52;;;19.05;;
77522;SDS011;66637;-29.628;-49.938;2023-09-19T09:09:06;176.52;;;23.98;;
77522;SDS011;66637;-29.628;-49.938;2023-09-19T09:11:40;141.13;;;20.67;;
77522;SDS011;66637;-29.628;-49.938;2023-09-19T09:14:12;164.40;;;23.90;;
77522;SDS011;66637;-29.628;-49.938;2023-09-19T09:16:43;205.27;;;27.38;;
77522;SDS011;66637;-29.628;-49.938;2023-09-19T09:19:15;219.25;;;28.08;;
77522;SDS011;66637;-29.628;-49.938;2023-09-19T09:21:54;179.93;;;24.95;;
77522;SDS011;66637;-29.628;-49.938;2023-09-19T09:24:35;65.75;;;10.95;;
77522;SDS011;66637;-29.628;-49.938;2023-09-19T09:27:08;60.72;;;10.65;;
77522;SDS011;66637;-29.628;-49.938;2023-09-19T09:29:45;42.17;;;9.02;;
77522;SDS011;66637;-29.628;-49.938;2023-09-19T09:32:19;60.67;;;9.77;;
77522;SDS011;66637;-29.628;-49.938;2023-09-19T09:34:52;36.92;;;7.70;;
77522;SDS011;66637;-29.628;-49.938;2023-09-19T09:37:28;24.13;;;5.93;;
77522;SDS011;66637;-29.628;-49.938;2023-09-19T09:40:05;22.15;;;5.57;;
77522;SDS011;66637;-29.628;-49.938;2023-09-19T09:42:49;30.33;;;7.47;;
77522;SDS011;66637;-29.628;-49.938;2023-09-19T09:45:22;48.47;;;8.75;;
77522;SDS011;66637;-29.628;-49.938;2023-09-19T09:48:05;25.20;;;6.30;;
77522;SDS011;66637;-29.628;-49.938;2023-09-19T09:50:47;26.27;;;5.90;;
77522;SDS011;66637;-29.628;-49.938;2023-09-19T09:53:28;21.33;;;5.65;;
77522;SDS011;66637;-29.628;-49.938;2023-09-19T09:56:06;25.13;;;5.75;;
77522;SDS011;66637;-29.628;-49.938;2023-09-19T09:58:50;25.98;;;5.50;;
77522;SDS011;66637;-29.628;-49.938;2023-09-19T10:01:45;36.80;;;5.50;;
77522;SDS011;66637;-29.628;-49.938;2023-09-19T10:04:27;27.73;;;5.53;;
77522;SDS011;66637;-29.628;-49.938;2023-09-19T10:07:07;19.75;;;6.00;;
77522;SDS011;66637;-29.628;-49.938;2023-09-19T10:09:47;24.15;;;5.35;;
77522;SDS011;66637;-29.628;-49.938;2023-09-19T10:12:20;32.13;;;4.97;;
77522;SDS011;66637;-29.628;-49.938;2023-09-19T10:14:51;16.02;;;3.22;;
77522;SDS011;66637;-29.628;-49.938;2023-09-19T10:17:22;30.50;;;5.38;;
77522;SDS011;66637;-29.628;-49.938;2023-09-19T10:19:56;31.70;;;5.13;;
77522;SDS011;66637;-29.628;-49.938;2023-09-19T10:22:27;29.60;;;5.28;;
77522;SDS011;66637;-29.628;-49.938;2023-09-19T10:25:02;47.15;;;7.60;;
77522;SDS011;66637;-29.628;-49.938;2023-09-19T10:27:37;29.27;;;4.13;;
77522;SDS011;66637;-29.628;-49.938;2023-09-19T10:30:12;49.15;;;6.47;;
77522;SDS011;66637;-29.628;-49.938;2023-09-19T10:32:45;56.38;;;7.30;;
77522;SDS011;66637;-29.628;-49.938;2023-09-19T10:35:25;20.77;;;4.45;;
77522;SDS011;66637;-29.628;-49.938;2023-09-19T10:37:57;34.53;;;5.15;;
77522;SDS011;66637;-29.628;-49.938;2023-09-19T10:40:34;29.95;;;5.07;;
77522;SDS011;66637;-29.628;-49.938;2023-09-19T10:43:17;38.97;;;5.80;;
77522;SDS011;66637;-29.628;-49.938;2023-09-19T10:45:50;37.97;;;4.85;;
77522;SDS011;66637;-29.628;-49.938;2023-09-19T10:48:22;17.75;;;3.50;;
77522;SDS011;66637;-29.628;-49.938;2023-09-19T10:53:50;44.97;;;6.68;;
77522;SDS011;66637;-29.628;-49.938;2023-09-19T10:56:30;35.92;;;5.75;;
77522;SDS011;66637;-29.628;-49.938;2023-09-19T10:59:07;40.60;;;5.03;;
77522;SDS011;66637;-29.628;-49.938;2023-09-19T11:01:43;47.75;;;7.10;;
77522;SDS011;66637;-29.628;-49.938;2023-09-19T11:07:05;36.10;;;4.88;;
77522;SDS011;66637;-29.628;-49.938;2023-09-19T11:09:49;22.75;;;4.00;;
77522;SDS011;66637;-29.628;-49.938;2023-09-19T11:16:03;19.88;;;3.08;;
77522;SDS011;66637;-29.628;-49.938;2023-09-19T11:27:08;14.00;;;2.70;;
77522;SDS011;66637;-29.628;-49.938;2023-09-19T11:29:43;26.38;;;4.05;;
77522;SDS011;66637;-29.628;-49.938;2023-09-19T11:32:14;29.00;;;4.38;;
77522;SDS011;66637;-29.628;-49.938;2023-09-19T11:34:48;8.43;;;2.50;;
77522;SDS011;66637;-29.628;-49.938;2023-09-19T11:40:10;7.47;;;2.42;;
77522;SDS011;66637;-29.628;-49.938;2023-09-19T11:42:48;102.53;;;12.32;;
77522;SDS011;66637;-29.628;-49.938;2023-09-19T11:48:26;168.80;;;19.90;;
77522;SDS011;66637;-29.628;-49.938;2023-09-19T11:50:58;96.35;;;13.80;;
77522;SDS011;66637;-29.628;-49.938;2023-09-19T11:53:36;174.35;;;23.00;;
77522;SDS011;66637;-29.628;-49.938;2023-09-19T11:56:10;167.88;;;22.02;;
77522;SDS011;66637;-29.628;-49.938;2023-09-19T11:58:40;163.80;;;21.50;;
77522;SDS011;66637;-29.628;-49.938;2023-09-19T12:01:13;271.80;;;30.83;;
77522;SDS011;66637;-29.628;-49.938;2023-09-19T12:03:52;212.02;;;27.55;;
77522;SDS011;66637;-29.628;-49.938;2023-09-19T12:06:26;185.02;;;22.98;;
77522;SDS011;66637;-29.628;-49.938;2023-09-19T12:09:24;113.00;;;16.17;;
77522;SDS011;66637;-29.628;-49.938;2023-09-19T12:11:57;58.38;;;10.00;;
77522;SDS011;66637;-29.628;-49.938;2023-09-19T12:14:28;37.50;;;6.32;;
77522;SDS011;66637;-29.628;-49.938;2023-09-19T12:17:00;24.90;;;5.20;;
77522;SDS011;66637;-29.628;-49.938;2023-09-19T12:19:33;29.73;;;5.55;;
77522;SDS011;66637;-29.628;-49.938;2023-09-19T12:22:04;34.80;;;5.25;;
77522;SDS011;66637;-29.628;-49.938;2023-09-19T12:24:34;193.60;;;22.00;;
77522;SDS011;66637;-29.628;-49.938;2023-09-19T12:27:07;188.02;;;25.55;;
77522;SDS011;66637;-29.628;-49.938;2023-09-19T12:32:15;200.10;;;25.15;;
77522;SDS011;66637;-29.628;-49.938;2023-09-19T12:34:52;184.50;;;21.25;;
77522;SDS011;66637;-29.628;-49.938;2023-09-19T12:37:23;148.88;;;17.08;;
77522;SDS011;66637;-29.628;-49.938;2023-09-19T12:40:06;148.95;;;16.75;;
77522;SDS011;66637;-29.628;-49.938;2023-09-19T12:45:19;102.47;;;16.42;;
77522;SDS011;66637;-29.628;-49.938;2023-09-19T12:51:04;93.75;;;14.10;;
77522;SDS011;66637;-29.628;-49.938;2023-09-19T12:53:37;69.25;;;12.23;;
77522;SDS011;66637;-29.628;-49.938;2023-09-19T12:56:16;59.65;;;11.82;;
77522;SDS011;66637;-29.628;-49.938;2023-09-19T12:58:54;66.22;;;11.25;;
77522;SDS011;66637;-29.628;-49.938;2023-09-19T13:01:29;52.13;;;10.57;;
77522;SDS011;66637;-29.628;-49.938;2023-09-19T13:07:02;19.35;;;4.07;;
77522;SDS011;66637;-29.628;-49.938;2023-09-19T13:09:34;17.25;;;4.20;;
77522;SDS011;66637;-29.628;-49.938;2023-09-19T13:15:08;16.90;;;3.58;;
77522;SDS011;66637;-29.628;-49.938;2023-09-19T13:17:49;8.70;;;2.60;;
77522;SDS011;66637;-29.628;-49.938;2023-09-19T13:20:22;11.02;;;2.63;;
77522;SDS011;66637;-29.628;-49.938;2023-09-19T13:23:08;9.27;;;2.80;;
77522;SDS011;66637;-29.628;-49.938;2023-09-19T13:25:58;6.88;;;2.45;;
77522;SDS011;66637;-29.628;-49.938;2023-09-19T13:28:30;9.80;;;2.42;;
77522;SDS011;66637;-29.628;-49.938;2023-09-19T13:31:01;9.35;;;2.40;;
77522;SDS011;66637;-29.628;-49.938;2023-09-19T13:33:33;6.13;;;2.25;;
77522;SDS011;66637;-29.628;-49.938;2023-09-19T13:36:05;4.78;;;2.10;;
77522;SDS011;66637;-29.628;-49.938;2023-09-19T13:38:35;7.13;;;2.50;;
77522;SDS011;66637;-29.628;-49.938;2023-09-19T13:41:07;6.30;;;2.30;;
77522;SDS011;66637;-29.628;-49.938;2023-09-19T13:43:41;4.95;;;1.90;;
77522;SDS011;66637;-29.628;-49.938;2023-09-19T13:46:16;5.53;;;1.83;;
77522;SDS011;66637;-29.628;-49.938;2023-09-19T13:48:54;5.80;;;2.30;;
77522;SDS011;66637;-29.628;-49.938;2023-09-19T13:51:30;10.30;;;2.28;;
77522;SDS011;66637;-29.628;-49.938;2023-09-19T13:54:00;7.63;;;1.70;;
77522;SDS011;66637;-29.628;-49.938;2023-09-19T13:56:34;8.15;;;2.33;;
77522;SDS011;66637;-29.628;-49.938;2023-09-19T13:59:07;6.22;;;1.90;;
77522;SDS011;66637;-29.628;-49.938;2023-09-19T14:01:37;7.10;;;2.08;;
77522;SDS011;66637;-29.628;-49.938;2023-09-19T14:04:08;10.45;;;2.97;;
77522;SDS011;66637;-29.628;-49.938;2023-09-19T14:06:43;5.10;;;1.90;;
77522;SDS011;66637;-29.628;-49.938;2023-09-19T14:09:15;6.63;;;1.90;;
77522;SDS011;66637;-29.628;-49.938;2023-09-19T14:11:48;5.35;;;2.20;;
77522;SDS011;66637;-29.628;-49.938;2023-09-19T14:14:22;10.40;;;3.45;;
77522;SDS011;66637;-29.628;-49.938;2023-09-19T14:16:54;6.22;;;3.05;;
77522;SDS011;66637;-29.628;-49.938;2023-09-19T14:19:26;7.45;;;2.53;;
77522;SDS011;66637;-29.628;-49.938;2023-09-19T14:21:57;6.60;;;2.20;;
77522;SDS011;66637;-29.628;-49.938;2023-09-19T14:24:31;4.15;;;1.92;;
77522;SDS011;66637;-29.628;-49.938;2023-09-19T14:27:03;5.95;;;1.58;;
77522;SDS011;66637;-29.628;-49.938;2023-09-19T14:29:36;7.15;;;1.95;;
77522;SDS011;66637;-29.628;-49.938;2023-09-19T14:32:07;5.65;;;1.50;;
77522;SDS011;66637;-29.628;-49.938;2023-09-19T14:34:38;4.65;;;1.55;;
77522;SDS011;66637;-29.628;-49.938;2023-09-19T14:37:12;4.72;;;1.73;;
77522;SDS011;66637;-29.628;-49.938;2023-09-19T14:39:44;4.75;;;1.90;;
77522;SDS011;66637;-29.628;-49.938;2023-09-19T14:42:14;4.18;;;1.63;;
77522;SDS011;66637;-29.628;-49.938;2023-09-19T14:44:48;5.90;;;1.65;;
77522;SDS011;66637;-29.628;-49.938;2023-09-19T14:47:19;7.78;;;1.90;;
77522;SDS011;66637;-29.628;-49.938;2023-09-19T14:49:50;4.55;;;1.65;;
77522;SDS011;66637;-29.628;-49.938;2023-09-19T14:52:21;6.13;;;1.80;;
77522;SDS011;66637;-29.628;-49.938;2023-09-19T14:54:52;6.72;;;2.05;;
77522;SDS011;66637;-29.628;-49.938;2023-09-19T14:57:22;4.85;;;1.92;;
77522;SDS011;66637;-29.628;-49.938;2023-09-19T14:59:53;18.05;;;4.00;;
77522;SDS011;66637;-29.628;-49.938;2023-09-19T15:02:23;67.70;;;10.48;;
77522;SDS011;66637;-29.628;-49.938;2023-09-19T15:04:55;135.25;;;18.55;;
77522;SDS011;66637;-29.628;-49.938;2023-09-19T15:07:26;107.63;;;15.00;;
77522;SDS011;66637;-29.628;-49.938;2023-09-19T15:09:59;74.90;;;11.50;;
77522;SDS011;66637;-29.628;-49.938;2023-09-19T15:12:31;99.45;;;14.02;;
77522;SDS011;66637;-29.628;-49.938;2023-09-19T15:15:02;156.07;;;20.63;;
77522;SDS011;66637;-29.628;-49.938;2023-09-19T15:17:35;160.90;;;21.42;;
77522;SDS011;66637;-29.628;-49.938;2023-09-19T15:20:08;182.80;;;22.60;;
77522;SDS011;66637;-29.628;-49.938;2023-09-19T15:22:44;184.95;;;24.35;;
77522;SDS011;66637;-29.628;-49.938;2023-09-19T15:25:15;141.73;;;20.35;;
77522;SDS011;66637;-29.628;-49.938;2023-09-19T15:27:46;140.45;;;18.05;;
77522;SDS011;66637;-29.628;-49.938;2023-09-19T15:30:17;117.38;;;15.48;;
77522;SDS011;66637;-29.628;-49.938;2023-09-19T15:32:48;132.48;;;17.15;;